createdAt,value
2019-03-09T00:00:32.258Z,1.95
2019-03-09T00:03:03.106Z,2.05
2019-03-09T00:05:33.886Z,1.70
2019-03-09T00:08:04.645Z,1.80
2019-03-09T00:10:35.421Z,1.75
2019-03-09T00:13:06.462Z,1.67
2019-03-09T00:15:37.270Z,1.60
2019-03-09T00:18:08.032Z,2.17
2019-03-09T00:20:39.077Z,1.80
2019-03-09T00:23:17.703Z,1.77
2019-03-09T00:26:06.343Z,2.08
2019-03-09T00:28:47.710Z,2.17
2019-03-09T00:31:35.364Z,2.00
2019-03-09T00:34:06.140Z,2.00
2019-03-09T00:36:36.995Z,2.65
2019-03-09T00:39:08.174Z,2.00
2019-03-09T00:41:38.957Z,1.95
2019-03-09T00:44:09.725Z,1.92
2019-03-09T00:46:40.510Z,1.90
2019-03-09T00:49:11.381Z,1.82
2019-03-09T00:51:42.533Z,1.90
2019-03-09T00:54:15.167Z,2.35
2019-03-09T00:56:46.294Z,1.95
2019-03-09T00:59:17.033Z,2.08
2019-03-09T01:01:47.827Z,2.00
2019-03-09T01:04:18.930Z,1.90
2019-03-09T01:06:49.730Z,2.15
2019-03-09T01:09:20.509Z,2.10
2019-03-09T01:11:51.351Z,1.87
2019-03-09T01:14:22.135Z,1.65
2019-03-09T01:16:52.892Z,1.70
2019-03-09T01:19:23.674Z,2.20
2019-03-09T01:21:54.426Z,1.70
2019-03-09T01:24:25.225Z,1.85
2019-03-09T01:26:56.580Z,1.98
2019-03-09T01:29:27.362Z,2.30
2019-03-09T01:31:58.120Z,2.17
2019-03-09T01:34:28.885Z,1.80
2019-03-09T01:36:59.637Z,1.50
2019-03-09T01:39:30.414Z,1.47
2019-03-09T01:42:01.170Z,1.80
2019-03-09T01:44:32.276Z,1.75
2019-03-09T01:47:03.026Z,1.77
2019-03-09T01:49:33.818Z,1.40
2019-03-09T01:52:04.572Z,1.67
2019-03-09T01:54:35.370Z,1.75
2019-03-09T01:57:06.444Z,1.50
2019-03-09T01:59:37.585Z,1.85
2019-03-09T02:02:08.353Z,2.20
2019-03-09T02:04:39.185Z,1.47
2019-03-09T02:07:09.979Z,1.50
2019-03-09T02:09:40.752Z,1.47
2019-03-09T02:12:11.824Z,1.40
2019-03-09T02:14:42.620Z,1.27
2019-03-09T02:17:13.666Z,1.40
2019-03-09T02:19:44.711Z,1.50
2019-03-09T02:22:15.458Z,1.50
2019-03-09T02:24:46.239Z,1.70
2019-03-09T02:27:17.331Z,1.37
2019-03-09T02:29:48.101Z,1.40
2019-03-09T02:32:18.853Z,1.10
2019-03-09T02:34:49.646Z,1.32
2019-03-09T02:37:20.686Z,1.37
2019-03-09T02:39:56.289Z,1.27
2019-03-09T02:42:27.210Z,1.32
2019-03-09T02:44:57.998Z,1.22
2019-03-09T02:47:28.751Z,1.10
2019-03-09T02:49:59.527Z,1.30
2019-03-09T02:52:30.280Z,1.10
2019-03-09T02:55:01.059Z,1.05
2019-03-09T02:57:31.802Z,1.00
2019-03-09T03:00:02.663Z,0.80
2019-03-09T03:02:35.323Z,0.98
2019-03-09T03:05:06.939Z,0.57
2019-03-09T03:07:37.702Z,0.93
2019-03-09T03:10:09.790Z,0.80
2019-03-09T03:12:40.527Z,0.90
2019-03-09T03:15:17.056Z,0.60
2019-03-09T03:17:47.785Z,0.78
2019-03-09T03:20:18.567Z,0.70
2019-03-09T03:22:49.642Z,0.70
2019-03-09T03:25:20.792Z,0.50
2019-03-09T03:27:51.579Z,0.50
2019-03-09T03:30:22.378Z,0.65
2019-03-09T03:32:54.744Z,0.40
2019-03-09T03:35:25.515Z,0.60
2019-03-09T03:37:56.588Z,0.60
2019-03-09T03:40:27.372Z,0.42
2019-03-09T03:42:58.116Z,0.40
2019-03-09T03:45:28.964Z,0.45
2019-03-09T03:47:59.722Z,0.40
2019-03-09T03:50:30.805Z,0.33
2019-03-09T03:53:01.833Z,0.60
2019-03-09T03:55:32.703Z,0.40
2019-03-09T03:58:03.552Z,0.42
2019-03-09T04:00:34.660Z,0.40
2019-03-09T04:03:05.487Z,0.50
2019-03-09T04:05:36.300Z,0.40
2019-03-09T04:08:07.340Z,0.40
2019-03-09T04:10:38.239Z,0.30
2019-03-09T04:13:09.464Z,0.20
2019-03-09T04:15:40.739Z,0.40
2019-03-09T04:18:11.535Z,0.40
2019-03-09T04:20:42.334Z,0.30
2019-03-09T04:23:13.106Z,0.23
2019-03-09T04:25:43.844Z,0.33
2019-03-09T04:28:14.754Z,0.30
2019-03-09T04:30:45.764Z,0.40
2019-03-09T04:33:16.515Z,0.20
2019-03-09T04:35:47.254Z,0.30
2019-03-09T04:38:18.027Z,0.45
2019-03-09T04:40:49.102Z,0.33
2019-03-09T04:43:19.879Z,0.35
2019-03-09T04:45:50.879Z,0.60
2019-03-09T04:48:21.651Z,0.35
2019-03-09T04:50:52.666Z,0.30
2019-03-09T04:53:23.447Z,0.20
2019-03-09T04:55:54.186Z,0.28
2019-03-09T04:58:25.282Z,0.20
2019-03-09T05:00:56.017Z,0.20
2019-03-09T05:03:26.786Z,0.20
2019-03-09T05:05:57.803Z,0.10
2019-03-09T05:08:34.417Z,0.17
2019-03-09T05:11:08.052Z,0.20
2019-03-09T05:13:40.954Z,0.10
2019-03-09T05:16:11.685Z,0.05
2019-03-09T05:18:42.469Z,0.10
2019-03-09T05:21:13.237Z,0.10
2019-03-09T05:23:44.014Z,0.10
2019-03-09T05:26:14.791Z,0.20
2019-03-09T05:28:45.790Z,0.10
2019-03-09T05:31:16.588Z,0.10
2019-03-09T05:33:47.350Z,0.13
2019-03-09T05:36:18.130Z,0.00
2019-03-09T05:38:48.879Z,0.20
2019-03-09T05:41:19.648Z,0.20
2019-03-09T05:43:50.387Z,0.17
2019-03-09T05:46:21.327Z,0.20
2019-03-09T05:48:52.502Z,0.25
2019-03-09T05:51:24.357Z,0.60
2019-03-09T05:53:55.109Z,0.30
2019-03-09T05:56:26.619Z,0.40
2019-03-09T05:58:57.384Z,0.45
2019-03-09T06:01:28.150Z,0.50
2019-03-09T06:04:00.305Z,0.40
2019-03-09T06:06:31.166Z,0.40
2019-03-09T06:09:02.195Z,0.60
2019-03-09T06:11:33.350Z,0.57
2019-03-09T06:14:04.207Z,0.60
2019-03-09T06:16:34.957Z,1.00
2019-03-09T06:19:06.059Z,0.62
2019-03-09T06:21:36.835Z,0.60
2019-03-09T06:24:08.951Z,0.85
2019-03-09T06:26:39.770Z,0.80
2019-03-09T06:29:10.842Z,0.95
2019-03-09T06:32:01.135Z,0.68
2019-03-09T06:34:32.218Z,0.80
2019-03-09T06:37:05.640Z,0.80
2019-03-09T06:39:36.369Z,0.62
2019-03-09T06:42:13.083Z,0.95
2019-03-09T06:44:43.848Z,0.90
2019-03-09T06:47:14.869Z,0.80
2019-03-09T06:49:45.614Z,1.00
2019-03-09T06:52:16.377Z,0.90
2019-03-09T06:54:47.126Z,0.98
2019-03-09T06:57:17.933Z,1.20
2019-03-09T06:59:48.665Z,0.88
2019-03-09T07:02:19.454Z,0.72
2019-03-09T07:04:50.205Z,0.50
2019-03-09T07:07:21.058Z,0.80
2019-03-09T07:09:51.818Z,0.70
2019-03-09T07:12:22.795Z,1.05
2019-03-09T07:14:59.559Z,0.78
2019-03-09T07:17:30.876Z,0.90
2019-03-09T07:20:11.873Z,0.85
2019-03-09T07:22:34.226Z,1.12
2019-03-09T07:25:06.560Z,0.85
2019-03-09T07:27:37.322Z,0.82
2019-03-09T07:30:16.769Z,1.10
2019-03-09T07:32:47.598Z,1.20
2019-03-09T07:35:18.370Z,1.10
2019-03-09T07:37:49.129Z,1.20
2019-03-09T07:40:20.203Z,1.17
2019-03-09T07:42:50.958Z,1.10
2019-03-09T07:45:22.174Z,0.80
2019-03-09T07:47:52.933Z,0.80
2019-03-09T07:50:23.714Z,1.20
2019-03-09T07:52:54.808Z,1.25
2019-03-09T07:55:25.589Z,1.30
2019-03-09T07:57:59.413Z,1.32
2019-03-09T08:00:30.204Z,1.12
2019-03-09T08:03:01.333Z,1.10
2019-03-09T08:05:32.465Z,1.02
2019-03-09T08:08:03.222Z,1.10
2019-03-09T08:10:34.032Z,1.37
2019-03-09T08:13:05.197Z,1.20
2019-03-09T08:15:35.975Z,1.10
2019-03-09T08:18:06.748Z,1.50
2019-03-09T08:20:37.837Z,1.00
2019-03-09T08:23:08.861Z,1.10
2019-03-09T08:25:39.652Z,0.90
2019-03-09T08:28:10.759Z,1.00
2019-03-09T08:30:41.800Z,0.80
2019-03-09T08:33:12.581Z,1.05
2019-03-09T08:35:43.687Z,0.95
2019-03-09T08:38:14.422Z,0.90
2019-03-09T08:40:45.202Z,0.72
2019-03-09T08:43:16.304Z,1.02
2019-03-09T08:45:47.054Z,0.80
2019-03-09T08:48:18.062Z,0.88
2019-03-09T08:50:48.853Z,0.93
2019-03-09T08:53:19.613Z,0.88
2019-03-09T08:55:50.791Z,1.05
2019-03-09T08:58:21.597Z,0.90
2019-03-09T09:00:52.671Z,0.80
2019-03-09T09:03:23.447Z,1.17
2019-03-09T09:05:54.214Z,1.00
2019-03-09T09:08:24.974Z,1.10
2019-03-09T09:10:56.027Z,1.10
2019-03-09T09:13:27.073Z,1.10
2019-03-09T09:15:58.226Z,1.20
2019-03-09T09:18:29.022Z,0.90
2019-03-09T09:21:00.099Z,1.10
2019-03-09T09:23:31.152Z,1.17
2019-03-09T09:26:02.191Z,0.95
2019-03-09T09:28:32.968Z,1.00
2019-03-09T09:31:03.789Z,0.90
2019-03-09T09:33:34.806Z,1.20
2019-03-09T09:36:05.612Z,1.20
2019-03-09T09:38:36.381Z,1.20
2019-03-09T09:41:07.438Z,1.10
2019-03-09T09:43:38.478Z,1.00
2019-03-09T09:46:09.331Z,1.17
2019-03-09T09:48:40.098Z,1.30
2019-03-09T09:51:10.895Z,1.22
2019-03-09T09:53:41.685Z,1.40
2019-03-09T09:56:12.445Z,1.40
2019-03-09T09:58:43.221Z,1.22
2019-03-09T10:01:14.270Z,1.17
2019-03-09T10:03:45.065Z,1.02
2019-03-09T10:06:15.822Z,1.50
2019-03-09T10:08:46.863Z,1.12
2019-03-09T10:11:17.914Z,1.10
2019-03-09T10:13:48.951Z,1.00
2019-03-09T10:16:19.730Z,1.30
2019-03-09T10:18:50.517Z,1.00
2019-03-09T10:21:21.575Z,0.90
2019-03-09T10:23:52.613Z,0.95
2019-03-09T10:26:26.480Z,1.12
2019-03-09T10:28:56.146Z,0.98
2019-03-09T10:31:26.890Z,0.80
2019-03-09T10:33:57.674Z,0.90
2019-03-09T10:36:28.433Z,0.90
2019-03-09T10:38:59.206Z,0.93
2019-03-09T10:41:29.959Z,0.90
2019-03-09T10:44:00.750Z,1.05
2019-03-09T10:46:31.505Z,1.00
2019-03-09T10:49:02.294Z,0.70
2019-03-09T10:51:33.030Z,0.80
2019-03-09T10:54:04.111Z,0.90
2019-03-09T10:56:34.875Z,0.78
2019-03-09T10:59:05.743Z,0.75
2019-03-09T11:01:36.733Z,0.95
2019-03-09T11:04:07.516Z,0.80
2019-03-09T11:06:38.330Z,0.90
2019-03-09T11:09:09.177Z,0.78
2019-03-09T11:11:39.936Z,0.80
2019-03-09T11:14:10.718Z,0.80
2019-03-09T11:16:41.778Z,1.20
2019-03-09T11:19:12.582Z,0.90
2019-03-09T11:21:43.324Z,0.80
2019-03-09T11:24:14.393Z,0.98
2019-03-09T11:26:45.145Z,1.20
2019-03-09T11:29:15.932Z,1.00
2019-03-09T11:31:47.027Z,0.90
2019-03-09T11:34:18.058Z,0.75
2019-03-09T11:36:48.841Z,0.90
2019-03-09T11:39:19.655Z,1.00
2019-03-09T11:41:50.502Z,0.72
2019-03-09T11:44:21.254Z,0.95
2019-03-09T11:46:52.041Z,0.98
2019-03-09T11:49:24.589Z,0.80
2019-03-09T11:51:55.378Z,1.00
2019-03-09T11:54:26.204Z,1.20
2019-03-09T11:56:56.974Z,0.93
2019-03-09T11:59:27.729Z,0.75
2019-03-09T12:01:58.505Z,1.00
2019-03-09T12:04:29.562Z,0.88
2019-03-09T12:07:00.362Z,1.02
2019-03-09T12:09:31.114Z,1.00
2019-03-09T12:12:04.306Z,1.25
2019-03-09T12:14:35.057Z,0.80
2019-03-09T12:17:12.364Z,1.20
2019-03-09T12:19:38.897Z,1.00
2019-03-09T12:22:09.724Z,1.10
2019-03-09T12:24:40.780Z,1.00
2019-03-09T12:27:11.583Z,0.82
2019-03-09T12:29:42.657Z,1.10
2019-03-09T12:32:13.701Z,1.10
2019-03-09T12:34:44.493Z,1.00
2019-03-09T12:37:15.322Z,1.10
2019-03-09T12:39:46.322Z,1.20
2019-03-09T12:42:17.366Z,1.20
2019-03-09T12:44:48.414Z,0.88
2019-03-09T12:47:19.208Z,1.17
2019-03-09T12:49:49.978Z,1.22
2019-03-09T12:52:21.035Z,0.98
2019-03-09T12:54:52.077Z,1.07
2019-03-09T12:57:22.825Z,1.07
2019-03-09T12:59:53.627Z,0.93
2019-03-09T13:02:24.378Z,1.10
2019-03-09T13:04:55.426Z,1.27
2019-03-09T13:07:26.198Z,1.10
2019-03-09T13:09:56.995Z,1.00
2019-03-09T13:12:27.754Z,1.07
2019-03-09T13:14:58.790Z,1.17
2019-03-09T13:17:29.605Z,0.90
2019-03-09T13:20:00.398Z,0.90
2019-03-09T13:22:31.323Z,0.90
2019-03-09T13:25:02.350Z,0.78
2019-03-09T13:27:33.094Z,0.85
2019-03-09T13:30:06.005Z,1.10
2019-03-09T13:32:36.778Z,0.90
2019-03-09T13:35:07.859Z,1.10
2019-03-09T13:37:38.627Z,0.75
2019-03-09T13:40:11.740Z,0.98
2019-03-09T13:42:42.510Z,0.88
2019-03-09T13:45:15.413Z,1.10
2019-03-09T13:47:46.183Z,1.00
2019-03-09T13:50:16.986Z,0.88
2019-03-09T13:52:47.742Z,0.90
2019-03-09T13:55:18.887Z,0.85
2019-03-09T13:57:49.920Z,1.00
2019-03-09T14:00:20.710Z,0.95
2019-03-09T14:02:51.805Z,1.12
2019-03-09T14:05:22.721Z,0.93
2019-03-09T14:07:53.782Z,1.25
2019-03-09T14:10:24.822Z,0.98
2019-03-09T14:12:55.582Z,1.07
2019-03-09T14:15:26.495Z,1.22
2019-03-09T14:17:57.270Z,1.22
2019-03-09T14:20:28.034Z,1.95
2019-03-09T14:22:59.124Z,1.77
2019-03-09T14:25:29.910Z,1.57
2019-03-09T14:28:00.669Z,1.80
2019-03-09T14:30:31.458Z,1.80
2019-03-09T14:33:02.223Z,2.00
2019-03-09T14:35:33.314Z,2.25
2019-03-09T14:38:04.483Z,2.30
2019-03-09T14:40:35.287Z,3.00
2019-03-09T14:43:06.063Z,2.77
2019-03-09T14:45:37.226Z,2.60
2019-03-09T14:48:08.028Z,2.90
2019-03-09T14:50:39.174Z,3.20
2019-03-09T14:53:10.221Z,2.92
2019-03-09T14:55:41.370Z,3.02
2019-03-09T14:58:12.407Z,3.12
2019-03-09T15:00:43.554Z,2.12
2019-03-09T15:03:14.397Z,2.83
2019-03-09T15:05:45.194Z,2.95
2019-03-09T15:08:15.976Z,2.75
2019-03-09T15:10:46.770Z,3.15
2019-03-09T15:13:17.865Z,3.00
2019-03-09T15:15:48.994Z,3.22
2019-03-09T15:18:21.253Z,3.08
2019-03-09T15:20:52.059Z,3.25
2019-03-09T15:23:22.846Z,2.67
2019-03-09T15:25:53.706Z,3.08
2019-03-09T15:28:24.487Z,2.92
2019-03-09T15:30:55.287Z,3.25
2019-03-09T15:33:26.431Z,2.85
2019-03-09T15:35:57.240Z,2.77
2019-03-09T15:38:28.009Z,2.62
2019-03-09T15:40:59.131Z,2.27
2019-03-09T15:43:29.941Z,2.40
2019-03-09T15:46:01.122Z,2.95
2019-03-09T15:48:32.175Z,3.40
2019-03-09T15:51:03.310Z,3.22
2019-03-09T15:53:34.493Z,3.00
2019-03-09T15:56:05.699Z,2.75
2019-03-09T15:58:37.308Z,2.92
2019-03-09T16:01:08.335Z,2.80
2019-03-09T16:03:39.183Z,2.77
2019-03-09T16:06:10.293Z,2.37
2019-03-09T16:08:41.083Z,3.10
2019-03-09T16:11:11.892Z,2.50
2019-03-09T16:13:42.678Z,2.83
2019-03-09T16:16:13.737Z,2.60
2019-03-09T16:18:44.808Z,2.47
2019-03-09T16:21:15.690Z,3.10
2019-03-09T16:23:46.490Z,2.90
2019-03-09T16:26:17.306Z,3.10
2019-03-09T16:28:48.355Z,2.83
2019-03-09T16:31:19.162Z,2.72
2019-03-09T16:33:50.229Z,2.17
2019-03-09T16:36:21.011Z,2.42
2019-03-09T16:38:51.814Z,2.27
2019-03-09T16:41:22.589Z,2.65
2019-03-09T16:43:53.688Z,2.50
2019-03-09T16:46:24.466Z,3.10
2019-03-09T16:48:55.578Z,3.60
2019-03-09T16:51:26.350Z,2.87
2019-03-09T16:53:57.163Z,2.70
2019-03-09T16:56:28.195Z,2.50
2019-03-09T16:58:59.006Z,2.00
2019-03-09T17:01:29.790Z,2.25
2019-03-09T17:04:00.921Z,1.77
2019-03-09T17:06:31.704Z,2.10
2019-03-09T17:09:02.543Z,2.00
2019-03-09T17:11:33.321Z,1.45
2019-03-09T17:14:04.191Z,2.00
2019-03-09T17:16:35.210Z,1.80
2019-03-09T17:19:06.254Z,1.62
2019-03-09T17:21:37.018Z,2.52
2019-03-09T17:24:07.832Z,2.17
2019-03-09T17:26:38.606Z,1.92
2019-03-09T17:29:09.394Z,2.08
2019-03-09T17:31:40.178Z,2.52
2019-03-09T17:34:10.978Z,2.05
2019-03-09T17:36:42.044Z,2.30
2019-03-09T17:39:13.174Z,2.37
2019-03-09T17:41:43.949Z,2.75
2019-03-09T17:44:14.766Z,2.60
2019-03-09T17:46:45.558Z,3.02
2019-03-09T17:49:16.357Z,2.92
2019-03-09T17:51:47.121Z,2.98
2019-03-09T17:54:18.216Z,2.72
2019-03-09T17:56:49.024Z,3.12
2019-03-09T17:59:19.815Z,3.40
2019-03-09T18:01:50.929Z,3.33
2019-03-09T18:04:21.721Z,2.50
2019-03-09T18:06:52.570Z,2.77
2019-03-09T18:09:23.387Z,2.87
2019-03-09T18:11:54.166Z,2.45
2019-03-09T18:14:24.963Z,2.85
2019-03-09T18:16:55.762Z,2.30
2019-03-09T18:19:26.558Z,2.80
2019-03-09T18:21:57.641Z,2.40
2019-03-09T18:24:28.689Z,2.80
2019-03-09T18:26:59.457Z,3.27
2019-03-09T18:29:30.267Z,3.15
2019-03-09T18:32:01.044Z,2.98
2019-03-09T18:34:32.169Z,3.83
2019-03-09T18:37:02.923Z,2.98
2019-03-09T18:39:33.731Z,2.98
2019-03-09T18:42:04.774Z,3.20
2019-03-09T18:44:35.586Z,3.00
2019-03-09T18:47:06.659Z,3.37
2019-03-09T18:49:37.470Z,3.17
2019-03-09T18:52:08.634Z,3.50
2019-03-09T18:54:39.441Z,3.65
2019-03-09T18:57:10.650Z,3.27
2019-03-09T18:59:41.449Z,3.22
2019-03-09T19:02:12.239Z,3.12
2019-03-09T19:04:43.347Z,4.37
2019-03-09T19:07:14.414Z,3.52
2019-03-09T19:09:45.547Z,3.80
2019-03-09T19:12:16.326Z,4.03
2019-03-09T19:14:47.137Z,4.65
2019-03-09T19:17:17.914Z,4.00
2019-03-09T19:19:48.721Z,3.65
2019-03-09T19:22:19.496Z,4.97
2019-03-09T19:24:50.299Z,4.12
2019-03-09T19:27:21.421Z,4.50
2019-03-09T19:29:52.558Z,4.70
2019-03-09T19:32:23.607Z,5.00
2019-03-09T19:34:54.418Z,4.40
2019-03-09T19:37:25.169Z,4.72
2019-03-09T19:39:55.978Z,4.90
2019-03-09T19:42:26.793Z,5.60
2019-03-09T19:44:57.593Z,3.92
2019-03-09T19:47:28.401Z,4.35
2019-03-09T19:49:59.474Z,4.37
2019-03-09T19:52:30.314Z,5.00
2019-03-09T19:55:01.231Z,4.17
2019-03-09T19:57:32.019Z,3.98
2019-03-09T20:00:03.649Z,4.55
2019-03-09T20:02:34.686Z,3.87
2019-03-09T20:05:08.095Z,4.65
2019-03-09T20:07:39.348Z,4.40
2019-03-09T20:10:12.382Z,4.53
2019-03-09T20:12:43.199Z,4.28
2019-03-09T20:15:19.232Z,3.70
2019-03-09T20:17:50.014Z,3.98
2019-03-09T20:20:20.822Z,4.15
2019-03-09T20:22:51.846Z,3.62
2019-03-09T20:25:22.897Z,4.25
2019-03-09T20:27:53.702Z,3.65
2019-03-09T20:30:24.780Z,3.83
2019-03-09T20:32:55.941Z,3.62
2019-03-09T20:35:26.965Z,4.42
2019-03-09T20:37:57.791Z,4.30
2019-03-09T20:40:28.546Z,3.95
2019-03-09T20:42:59.681Z,4.58
2019-03-09T20:45:30.731Z,4.28
2019-03-09T20:48:01.543Z,4.08
2019-03-09T20:50:32.614Z,4.50
2019-03-09T20:53:03.758Z,3.92
2019-03-09T20:55:34.536Z,3.22
2019-03-09T20:58:05.367Z,3.80
2019-03-09T21:00:36.148Z,3.83
2019-03-09T21:03:06.954Z,4.47
2019-03-09T21:05:37.752Z,3.27
2019-03-09T21:08:08.537Z,3.15
2019-03-09T21:10:39.310Z,3.77
2019-03-09T21:13:12.008Z,3.55
2019-03-09T21:15:42.757Z,3.40
2019-03-09T21:18:13.581Z,4.05
2019-03-09T21:20:44.340Z,3.37
2019-03-09T21:23:15.142Z,3.30
2019-03-09T21:25:47.508Z,3.30
2019-03-09T21:28:18.481Z,3.85
2019-03-09T21:30:49.278Z,3.20
2019-03-09T21:33:20.094Z,3.10
2019-03-09T21:35:50.889Z,3.20
2019-03-09T21:38:22.036Z,3.05
2019-03-09T21:40:53.094Z,3.25
2019-03-09T21:43:23.910Z,3.22
2019-03-09T21:45:55.067Z,3.30
2019-03-09T21:48:25.873Z,3.52
2019-03-09T21:50:56.947Z,4.30
2019-03-09T21:53:28.090Z,2.92
2019-03-09T21:55:58.872Z,4.33
2019-03-09T21:58:29.975Z,2.95
2019-03-09T22:01:00.749Z,3.85
2019-03-09T22:03:31.913Z,3.37
2019-03-09T22:06:06.406Z,4.30
2019-03-09T22:08:35.199Z,4.03
2019-03-09T22:11:05.978Z,4.08
2019-03-09T22:13:36.750Z,3.62
2019-03-09T22:16:07.806Z,3.98
2019-03-09T22:18:38.576Z,4.00
2019-03-09T22:21:09.683Z,3.15
2019-03-09T22:23:44.130Z,3.58
2019-03-09T22:26:12.957Z,4.17
2019-03-09T22:28:43.735Z,4.00
2019-03-09T22:31:14.897Z,3.75
2019-03-09T22:33:45.914Z,3.00
2019-03-09T22:36:16.722Z,3.30
2019-03-09T22:38:47.500Z,3.55
2019-03-09T22:41:18.368Z,4.03
2019-03-09T22:43:49.516Z,3.33
2019-03-09T22:46:20.315Z,4.20
2019-03-09T22:48:51.114Z,3.92
2019-03-09T22:51:22.208Z,4.00
2019-03-09T22:53:53.258Z,3.20
2019-03-09T22:56:24.300Z,3.55
2019-03-09T22:58:55.363Z,3.90
2019-03-09T23:01:26.592Z,3.80
2019-03-09T23:03:57.378Z,3.15
2019-03-09T23:06:28.187Z,3.58
2019-03-09T23:08:58.952Z,3.50
2019-03-09T23:11:30.047Z,4.37
2019-03-09T23:14:01.091Z,3.60
2019-03-09T23:16:31.910Z,3.47
2019-03-09T23:19:02.711Z,4.00
2019-03-09T23:21:33.811Z,3.87
2019-03-09T23:24:04.766Z,4.10
2019-03-09T23:26:35.821Z,3.98
2019-03-09T23:29:06.630Z,3.90
2019-03-09T23:31:37.404Z,4.12
2019-03-09T23:34:08.189Z,4.85
2019-03-09T23:36:39.254Z,4.53
2019-03-09T23:39:10.245Z,4.40
2019-03-09T23:41:41.036Z,4.50
2019-03-09T23:44:11.815Z,4.92
2019-03-09T23:46:42.701Z,4.67
2019-03-09T23:49:13.471Z,5.12
2019-03-09T23:51:44.341Z,4.55
2019-03-09T23:54:15.439Z,4.95
2019-03-09T23:56:46.478Z,4.35
2019-03-09T23:59:17.297Z,5.42
